Terminal Aerodrome Forecast
Issued by NWS Newport/Morehead City, NC

Home | Current Version | Previous Version | Text Only | Print | Product List | Glossary On
Versions: 1 2 3 4 5 6 7 8 9 10 11 12 13 14
000
FTUS42 KMHX 300900 AAA
TAFEWN
TAF AMD
KEWN 300905Z 3009/3106 04003KT P6SM SKC
     FM301000 00000KT 4SM BR SKC
     FM301200 15007KT P6SM SCT040
     FM310100 16004KT P6SM SKC=

USA.gov is the U.S. government's official web portal to all federal, state and local government web resources and services.